sensor_id;sensor_type;location;lat;lon;timestamp;pressure;altitude;pressure_sealevel;temperature;humidity
71194;BME280;58903;47.210;8.618;2023-06-14T00:01:09;93631.09;;;30.16;25.88
71194;BME280;58903;47.210;8.618;2023-06-14T00:03:44;93624.81;;;30.16;25.79
71194;BME280;58903;47.210;8.618;2023-06-14T00:06:18;93637.75;;;30.13;25.29
71194;BME280;58903;47.210;8.618;2023-06-14T00:08:53;93635.00;;;30.13;26.35
71194;BME280;58903;47.210;8.618;2023-06-14T00:11:20;93628.16;;;30.14;25.35
71194;BME280;58903;47.210;8.618;2023-06-14T00:13:46;93625.56;;;30.16;26.11
71194;BME280;58903;47.210;8.618;2023-06-14T00:16:15;93619.84;;;30.14;26.40
71194;BME280;58903;47.210;8.618;2023-06-14T00:18:47;93627.78;;;30.18;26.22
71194;BME280;58903;47.210;8.618;2023-06-14T00:21:13;93629.06;;;30.17;26.50
71194;BME280;58903;47.210;8.618;2023-06-14T00:23:49;93624.25;;;30.17;25.52
71194;BME280;58903;47.210;8.618;2023-06-14T00:26:25;93615.75;;;30.15;25.87
71194;BME280;58903;47.210;8.618;2023-06-14T00:29:00;93620.72;;;30.17;26.05
71194;BME280;58903;47.210;8.618;2023-06-14T00:31:35;93619.66;;;30.12;26.23
71194;BME280;58903;47.210;8.618;2023-06-14T00:34:04;93622.06;;;30.08;26.01
71194;BME280;58903;47.210;8.618;2023-06-14T00:36:35;93619.84;;;30.07;26.38
71194;BME280;58903;47.210;8.618;2023-06-14T00:39:08;93621.69;;;30.04;25.90
71194;BME280;58903;47.210;8.618;2023-06-14T00:42:04;93621.69;;;30.04;26.01
71194;BME280;58903;47.210;8.618;2023-06-14T00:44:40;93614.50;;;30.01;25.65
71194;BME280;58903;47.210;8.618;2023-06-14T00:47:08;93614.69;;;30.03;26.32
71194;BME280;58903;47.210;8.618;2023-06-14T00:49:34;93617.47;;;30.03;25.11
71194;BME280;58903;47.210;8.618;2023-06-14T00:52:07;93625.59;;;30.01;25.81
71194;BME280;58903;47.210;8.618;2023-06-14T00:54:36;93617.13;;;29.99;25.17
71194;BME280;58903;47.210;8.618;2023-06-14T00:57:02;93611.34;;;29.97;26.27
71194;BME280;58903;47.210;8.618;2023-06-14T00:59:30;93608.41;;;29.95;25.16
71194;BME280;58903;47.210;8.618;2023-06-14T01:01:59;93618.41;;;29.98;25.52
71194;BME280;58903;47.210;8.618;2023-06-14T01:04:27;93611.34;;;29.97;25.33
71194;BME280;58903;47.210;8.618;2023-06-14T01:15:31;93607.31;;;29.98;25.78
71194;BME280;58903;47.210;8.618;2023-06-14T01:18:13;93615.63;;;29.98;24.98
71194;BME280;58903;47.210;8.618;2023-06-14T01:23:58;93609.34;;;29.98;25.37
71194;BME280;58903;47.210;8.618;2023-06-14T01:26:24;93608.41;;;29.95;25.06
71194;BME280;58903;47.210;8.618;2023-06-14T01:28:54;93608.41;;;29.95;25.11
71194;BME280;58903;47.210;8.618;2023-06-14T01:31:34;93608.41;;;29.95;24.81
71194;BME280;58903;47.210;8.618;2023-06-14T01:34:19;93611.94;;;29.96;25.52
71194;BME280;58903;47.210;8.618;2023-06-14T01:36:46;93610.81;;;29.99;24.91
71194;BME280;58903;47.210;8.618;2023-06-14T01:39:15;93608.41;;;29.95;25.34
71194;BME280;58903;47.210;8.618;2023-06-14T01:41:51;93613.41;;;29.97;24.94
71194;BME280;58903;47.210;8.618;2023-06-14T01:44:55;93609.91;;;29.96;25.49
71194;BME280;58903;47.210;8.618;2023-06-14T01:47:23;93612.50;;;29.94;25.04
71194;BME280;58903;47.210;8.618;2023-06-14T01:49:50;93615.09;;;29.92;25.22
71194;BME280;58903;47.210;8.618;2023-06-14T01:52:19;93617.13;;;29.92;25.56
71194;BME280;58903;47.210;8.618;2023-06-14T01:54:55;93618.41;;;29.91;25.22
71194;BME280;58903;47.210;8.618;2023-06-14T01:57:34;93612.13;;;29.90;25.33
71194;BME280;58903;47.210;8.618;2023-06-14T02:00:00;93609.72;;;29.87;25.30
71194;BME280;58903;47.210;8.618;2023-06-14T02:02:26;93611.22;;;29.88;25.62
71194;BME280;58903;47.210;8.618;2023-06-14T02:04:54;93606.22;;;29.86;25.73
71194;BME280;58903;47.210;8.618;2023-06-14T02:07:23;93602.72;;;29.86;24.75
71194;BME280;58903;47.210;8.618;2023-06-14T02:09:50;93604.75;;;29.85;25.09
71194;BME280;58903;47.210;8.618;2023-06-14T02:12:16;93616.19;;;29.89;25.84
71194;BME280;58903;47.210;8.618;2023-06-14T02:14:44;93612.31;;;29.85;25.49
71194;BME280;58903;47.210;8.618;2023-06-14T02:17:10;93607.34;;;29.83;25.32
71194;BME280;58903;47.210;8.618;2023-06-14T02:19:37;93611.97;;;29.80;25.97
71194;BME280;58903;47.210;8.618;2023-06-14T02:22:15;93609.75;;;29.79;25.02
71194;BME280;58903;47.210;8.618;2023-06-14T02:24:43;93610.50;;;29.79;24.96
71194;BME280;58903;47.210;8.618;2023-06-14T02:27:36;93609.00;;;29.78;25.29
71194;BME280;58903;47.210;8.618;2023-06-14T02:30:09;93609.75;;;29.79;26.05
71194;BME280;58903;47.210;8.618;2023-06-14T02:32:46;93605.66;;;29.80;25.26
71194;BME280;58903;47.210;8.618;2023-06-14T02:35:41;93610.69;;;29.82;25.65
71194;BME280;58903;47.210;8.618;2023-06-14T02:38:15;93606.63;;;29.75;25.81
71194;BME280;58903;47.210;8.618;2023-06-14T02:40:54;93613.81;;;29.78;25.74
71194;BME280;58903;47.210;8.618;2023-06-14T02:43:21;93611.03;;;29.78;25.41
71194;BME280;58903;47.210;8.618;2023-06-14T02:45:59;93610.84;;;29.76;25.68
71194;BME280;58903;47.210;8.618;2023-06-14T02:48:25;93613.81;;;29.78;25.98
71194;BME280;58903;47.210;8.618;2023-06-14T02:50:51;93616.41;;;29.76;25.72
71194;BME280;58903;47.210;8.618;2023-06-14T02:53:33;93622.69;;;29.76;25.18
71194;BME280;58903;47.210;8.618;2023-06-14T02:56:08;93613.44;;;29.74;25.45
71194;BME280;58903;47.210;8.618;2023-06-14T02:58:33;93619.75;;;29.74;26.16
71194;BME280;58903;47.210;8.618;2023-06-14T03:01:08;93625.28;;;29.74;25.27
71194;BME280;58903;47.210;8.618;2023-06-14T03:03:47;93620.81;;;29.71;25.94
71194;BME280;58903;47.210;8.618;2023-06-14T03:06:42;93616.56;;;29.70;25.26
71194;BME280;58903;47.210;8.618;2023-06-14T03:09:09;93621.38;;;29.70;25.25
71194;BME280;58903;47.210;8.618;2023-06-14T03:11:35;93622.66;;;29.69;26.36
71194;BME280;58903;47.210;8.618;2023-06-14T03:14:03;93614.16;;;29.67;25.46
71194;BME280;58903;47.210;8.618;2023-06-14T03:17:07;93619.72;;;29.67;24.96
71194;BME280;58903;47.210;8.618;2023-06-14T03:19:33;93629.50;;;29.68;26.39
71194;BME280;58903;47.210;8.618;2023-06-14T03:21:59;93630.78;;;29.67;25.30
71194;BME280;58903;47.210;8.618;2023-06-14T03:24:28;93634.88;;;29.66;25.53
71194;BME280;58903;47.210;8.618;2023-06-14T03:26:55;93635.22;;;29.62;25.33
71194;BME280;58903;47.210;8.618;2023-06-14T03:29:25;93641.16;;;29.59;25.73
71194;BME280;58903;47.210;8.618;2023-06-14T03:32:29;93640.59;;;29.60;26.04
71194;BME280;58903;47.210;8.618;2023-06-14T03:35:28;93649.47;;;29.59;26.14
71194;BME280;58903;47.210;8.618;2023-06-14T03:38:06;93647.78;;;29.56;25.44
71194;BME280;58903;47.210;8.618;2023-06-14T03:40:32;93647.63;;;29.54;26.00
71194;BME280;58903;47.210;8.618;2023-06-14T03:43:10;93644.13;;;29.53;25.92
71194;BME280;58903;47.210;8.618;2023-06-14T03:45:39;93654.84;;;29.57;25.82
71194;BME280;58903;47.210;8.618;2023-06-14T03:48:09;93655.00;;;29.59;26.06
71194;BME280;58903;47.210;8.618;2023-06-14T03:50:35;93649.84;;;29.55;25.27
71194;BME280;58903;47.210;8.618;2023-06-14T03:53:05;93647.63;;;29.54;25.85
71194;BME280;58903;47.210;8.618;2023-06-14T03:55:41;93651.88;;;29.55;25.98
71194;BME280;58903;47.210;8.618;2023-06-14T03:58:23;93650.38;;;29.54;25.76
71194;BME280;58903;47.210;8.618;2023-06-14T04:00:49;93656.88;;;29.49;25.29
71194;BME280;58903;47.210;8.618;2023-06-14T04:03:17;93671.44;;;29.49;25.44
71194;BME280;58903;47.210;8.618;2023-06-14T04:05:44;93663.69;;;29.48;26.03
71194;BME280;58903;47.210;8.618;2023-06-14T04:08:20;93662.41;;;29.49;25.96
71194;BME280;58903;47.210;8.618;2023-06-14T04:10:47;93671.44;;;29.49;25.64
71194;BME280;58903;47.210;8.618;2023-06-14T04:13:13;93673.50;;;29.49;25.81
71194;BME280;58903;47.210;8.618;2023-06-14T04:15:43;93674.97;;;29.50;25.62
71194;BME280;58903;47.210;8.618;2023-06-14T04:18:12;93675.53;;;29.48;25.86
71194;BME280;58903;47.210;8.618;2023-06-14T04:20:38;93678.84;;;29.47;25.13
71194;BME280;58903;47.210;8.618;2023-06-14T04:23:14;93681.44;;;29.45;26.05
71194;BME280;58903;47.210;8.618;2023-06-14T04:25:40;93677.94;;;29.44;25.56
71194;BME280;58903;47.210;8.618;2023-06-14T04:28:13;93682.91;;;29.46;25.64
71194;BME280;58903;47.210;8.618;2023-06-14T04:31:09;93685.13;;;29.47;26.34
71194;BME280;58903;47.210;8.618;2023-06-14T04:36:58;93688.25;;;29.44;25.59
71194;BME280;58903;47.210;8.618;2023-06-14T04:39:33;93695.09;;;29.43;26.44
71194;BME280;58903;47.210;8.618;2023-06-14T04:42:05;93699.16;;;29.42;25.97
71194;BME280;58903;47.210;8.618;2023-06-14T04:44:33;93704.31;;;29.45;26.45
71194;BME280;58903;47.210;8.618;2023-06-14T04:47:01;93705.06;;;29.46;26.37
71194;BME280;58903;47.210;8.618;2023-06-14T04:49:31;93708.59;;;29.46;26.05
71194;BME280;58903;47.210;8.618;2023-06-14T04:52:06;93709.88;;;29.45;26.74
71194;BME280;58903;47.210;8.618;2023-06-14T04:54:33;93708.94;;;29.43;27.22
71194;BME280;58903;47.210;8.618;2023-06-14T04:57:21;93713.94;;;29.44;25.88
71194;BME280;58903;47.210;8.618;2023-06-14T05:00:26;93708.94;;;29.43;26.24
71194;BME280;58903;47.210;8.618;2023-06-14T05:03:11;93711.19;;;29.44;26.01
71194;BME280;58903;47.210;8.618;2023-06-14T05:05:44;93706.72;;;29.41;27.11
71194;BME280;58903;47.210;8.618;2023-06-14T05:08:22;93715.41;;;29.45;26.23
71194;BME280;58903;47.210;8.618;2023-06-14T05:11:00;93714.13;;;29.46;26.75
71194;BME280;58903;47.210;8.618;2023-06-14T05:13:44;93714.13;;;29.46;26.46
71194;BME280;58903;47.210;8.618;2023-06-14T05:16:14;93715.78;;;29.49;26.32
71194;BME280;58903;47.210;8.618;2023-06-14T05:18:53;93719.09;;;29.48;26.45
71194;BME280;58903;47.210;8.618;2023-06-14T05:21:21;93718.38;;;29.47;26.74
71194;BME280;58903;47.210;8.618;2023-06-14T05:23:47;93718.94;;;29.46;26.71
71194;BME280;58903;47.210;8.618;2023-06-14T05:26:15;93724.66;;;29.48;26.89
71194;BME280;58903;47.210;8.618;2023-06-14T05:28:44;93716.91;;;29.46;26.61
71194;BME280;58903;47.210;8.618;2023-06-14T05:31:13;93721.31;;;29.49;26.60
71194;BME280;58903;47.210;8.618;2023-06-14T05:33:38;93727.44;;;29.48;27.06
71194;BME280;58903;47.210;8.618;2023-06-14T05:36:09;93736.47;;;29.48;26.55
71194;BME280;58903;47.210;8.618;2023-06-14T05:38:45;93729.81;;;29.44;26.93
71194;BME280;58903;47.210;8.618;2023-06-14T05:41:29;93740.53;;;29.47;26.82
71194;BME280;58903;47.210;8.618;2023-06-14T05:43:56;93735.56;;;29.46;27.57
71194;BME280;58903;47.210;8.618;2023-06-14T05:46:37;93741.84;;;29.46;27.34
71194;BME280;58903;47.210;8.618;2023-06-14T05:49:07;93734.81;;;29.45;26.62
71194;BME280;58903;47.210;8.618;2023-06-14T05:51:34;93727.25;;;29.46;27.53
71194;BME280;58903;47.210;8.618;2023-06-14T05:54:13;93740.34;;;29.45;27.47
71194;BME280;58903;47.210;8.618;2023-06-14T05:56:56;93743.88;;;29.46;27.33
71194;BME280;58903;47.210;8.618;2023-06-14T05:59:34;93743.13;;;29.45;27.34
71194;BME280;58903;47.210;8.618;2023-06-14T06:02:18;93738.31;;;29.46;26.91
71194;BME280;58903;47.210;8.618;2023-06-14T06:04:53;93743.13;;;29.45;27.49
71194;BME280;58903;47.210;8.618;2023-06-14T06:07:39;93738.50;;;29.48;27.05
71194;BME280;58903;47.210;8.618;2023-06-14T06:10:11;93743.88;;;29.46;27.06
71194;BME280;58903;47.210;8.618;2023-06-14T06:12:44;93747.56;;;29.48;27.42
71194;BME280;58903;47.210;8.618;2023-06-14T06:15:45;93742.78;;;29.49;27.12
71194;BME280;58903;47.210;8.618;2023-06-14T06:18:13;93760.69;;;29.48;26.98
71194;BME280;58903;47.210;8.618;2023-06-14T06:20:52;93753.09;;;29.48;26.67
71194;BME280;58903;47.210;8.618;2023-06-14T06:23:26;93754.56;;;29.49;27.47
71194;BME280;58903;47.210;8.618;2023-06-14T06:26:13;93749.41;;;29.46;27.20
71194;BME280;58903;47.210;8.618;2023-06-14T06:29:02;93764.94;;;29.49;26.88
71194;BME280;58903;47.210;8.618;2023-06-14T06:31:44;93760.69;;;29.48;27.87
71194;BME280;58903;47.210;8.618;2023-06-14T06:34:17;93760.69;;;29.48;28.65
71194;BME280;58903;47.210;8.618;2023-06-14T06:36:45;93759.03;;;29.45;29.60
71194;BME280;58903;47.210;8.618;2023-06-14T06:39:29;93760.50;;;29.46;30.04
71194;BME280;58903;47.210;8.618;2023-06-14T06:42:22;93767.53;;;29.47;30.53
71194;BME280;58903;47.210;8.618;2023-06-14T06:44:58;93772.31;;;29.46;29.50
71194;BME280;58903;47.210;8.618;2023-06-14T06:47:40;93778.41;;;29.45;29.47
71194;BME280;58903;47.210;8.618;2023-06-14T06:50:19;93777.13;;;29.46;29.62
71194;BME280;58903;47.210;8.618;2023-06-14T06:52:51;93772.13;;;29.44;30.30
71194;BME280;58903;47.210;8.618;2023-06-14T06:55:48;93784.69;;;29.45;30.19
71194;BME280;58903;47.210;8.618;2023-06-14T06:58:21;93781.91;;;29.45;30.25
71194;BME280;58903;47.210;8.618;2023-06-14T07:00:57;93786.31;;;29.41;29.97
71194;BME280;58903;47.210;8.618;2023-06-14T07:03:23;93788.00;;;29.44;29.83
71194;BME280;58903;47.210;8.618;2023-06-14T07:05:50;93789.28;;;29.43;29.71
71194;BME280;58903;47.210;8.618;2023-06-14T07:08:28;93793.56;;;29.44;30.13
71194;BME280;58903;47.210;8.618;2023-06-14T07:11:01;93800.03;;;29.46;29.54
71194;BME280;58903;47.210;8.618;2023-06-14T07:13:28;93797.25;;;29.46;29.63
71194;BME280;58903;47.210;8.618;2023-06-14T07:16:01;93795.75;;;29.45;29.21
71194;BME280;58903;47.210;8.618;2023-06-14T07:18:38;93794.44;;;29.39;29.82
71194;BME280;58903;47.210;8.618;2023-06-14T07:21:05;93798.91;;;29.42;30.10
71194;BME280;58903;47.210;8.618;2023-06-14T07:23:31;93798.53;;;29.45;30.10
71194;BME280;58903;47.210;8.618;2023-06-14T07:26:06;93796.31;;;29.44;30.10
71194;BME280;58903;47.210;8.618;2023-06-14T07:28:32;93803.34;;;29.45;29.61
71194;BME280;58903;47.210;8.618;2023-06-14T07:30:58;93802.03;;;29.46;29.88
71194;BME280;58903;47.210;8.618;2023-06-14T07:33:26;93807.03;;;29.47;29.94
71194;BME280;58903;47.210;8.618;2023-06-14T07:35:54;93805.56;;;29.46;30.13
71194;BME280;58903;47.210;8.618;2023-06-14T07:38:22;93806.84;;;29.45;30.04
71194;BME280;58903;47.210;8.618;2023-06-14T07:40:51;93799.66;;;29.42;30.25
71194;BME280;58903;47.210;8.618;2023-06-14T07:43:32;93801.88;;;29.44;30.75
71194;BME280;58903;47.210;8.618;2023-06-14T07:46:01;93801.31;;;29.45;29.92
71194;BME280;58903;47.210;8.618;2023-06-14T07:48:40;93810.38;;;29.46;30.93
71194;BME280;58903;47.210;8.618;2023-06-14T07:51:36;93800.59;;;29.45;30.89
71194;BME280;58903;47.210;8.618;2023-06-14T07:54:13;93803.34;;;29.45;30.23
71194;BME280;58903;47.210;8.618;2023-06-14T07:56:48;93800.59;;;29.45;30.59
71194;BME280;58903;47.210;8.618;2023-06-14T07:59:26;93808.91;;;29.45;30.57
71194;BME280;58903;47.210;8.618;2023-06-14T08:02:05;93810.91;;;29.44;30.38
71194;BME280;58903;47.210;8.618;2023-06-14T08:04:32;93806.31;;;29.47;29.80
71194;BME280;58903;47.210;8.618;2023-06-14T08:07:29;93805.72;;;29.41;30.15
71194;BME280;58903;47.210;8.618;2023-06-14T08:10:08;93805.19;;;29.50;29.89
71194;BME280;58903;47.210;8.618;2023-06-14T08:12:35;93809.09;;;29.54;28.86
71194;BME280;58903;47.210;8.618;2023-06-14T08:15:11;93807.06;;;29.62;29.41
71194;BME280;58903;47.210;8.618;2023-06-14T08:17:39;93808.00;;;29.65;28.53
71194;BME280;58903;47.210;8.618;2023-06-14T08:20:13;93814.66;;;29.69;28.73
71194;BME280;58903;47.210;8.618;2023-06-14T08:22:39;93807.84;;;29.70;29.15
71194;BME280;58903;47.210;8.618;2023-06-14T08:25:08;93822.97;;;29.69;28.79
71194;BME280;58903;47.210;8.618;2023-06-14T08:27:37;93818.19;;;29.70;28.62
71194;BME280;58903;47.210;8.618;2023-06-14T08:30:05;93816.34;;;29.72;28.76
71194;BME280;58903;47.210;8.618;2023-06-14T08:32:31;93820.38;;;29.71;28.59
71194;BME280;58903;47.210;8.618;2023-06-14T08:34:57;93819.66;;;29.71;28.44
71194;BME280;58903;47.210;8.618;2023-06-14T08:37:23;93813.19;;;29.68;28.80
71194;BME280;58903;47.210;8.618;2023-06-14T08:39:48;93816.31;;;29.65;28.38
71194;BME280;58903;47.210;8.618;2023-06-14T08:42:26;93814.66;;;29.62;28.83
71194;BME280;58903;47.210;8.618;2023-06-14T08:45:01;93820.19;;;29.62;28.13
71194;BME280;58903;47.210;8.618;2023-06-14T08:47:43;93816.69;;;29.61;28.07
71194;BME280;58903;47.210;8.618;2023-06-14T08:50:21;93818.91;;;29.63;28.87
71194;BME280;58903;47.210;8.618;2023-06-14T08:52:53;93821.66;;;29.63;31.52
71194;BME280;58903;47.210;8.618;2023-06-14T08:55:26;93826.69;;;29.64;30.07
71194;BME280;58903;47.210;8.618;2023-06-14T08:57:56;93827.41;;;29.65;29.96
71194;BME280;58903;47.210;8.618;2023-06-14T09:00:26;93824.44;;;29.63;28.43
71194;BME280;58903;47.210;8.618;2023-06-14T09:02:56;93825.75;;;29.62;29.18
71194;BME280;58903;47.210;8.618;2023-06-14T09:05:39;93824.25;;;29.61;28.44
71194;BME280;58903;47.210;8.618;2023-06-14T09:08:06;93821.28;;;29.59;28.62
71194;BME280;58903;47.210;8.618;2023-06-14T09:10:44;93826.09;;;29.58;29.23
71194;BME280;58903;47.210;8.618;2023-06-14T09:13:23;93821.28;;;29.59;29.13
71194;BME280;58903;47.210;8.618;2023-06-14T09:16:05;93824.06;;;29.59;28.50
71194;BME280;58903;47.210;8.618;2023-06-14T09:21:52;93823.13;;;29.56;28.17
71194;BME280;58903;47.210;8.618;2023-06-14T09:24:55;93813.53;;;29.57;28.48
71194;BME280;58903;47.210;8.618;2023-06-14T09:27:21;93820.34;;;29.56;28.65
71194;BME280;58903;47.210;8.618;2023-06-14T09:29:47;93821.28;;;29.59;28.79
71194;BME280;58903;47.210;8.618;2023-06-14T09:32:25;93822.59;;;29.58;28.24
71194;BME280;58903;47.210;8.618;2023-06-14T09:34:53;93822.78;;;29.60;28.73
71194;BME280;58903;47.210;8.618;2023-06-14T09:37:30;93824.63;;;29.57;28.23
71194;BME280;58903;47.210;8.618;2023-06-14T09:43:30;93830.50;;;29.54;28.64
71194;BME280;58903;47.210;8.618;2023-06-14T09:46:06;93841.41;;;29.52;28.57
71194;BME280;58903;47.210;8.618;2023-06-14T09:48:44;93831.81;;;29.53;28.00
71194;BME280;58903;47.210;8.618;2023-06-14T09:51:15;93836.06;;;29.54;28.70
71194;BME280;58903;47.210;8.618;2023-06-14T09:53:43;93829.78;;;29.53;28.91
71194;BME280;58903;47.210;8.618;2023-06-14T09:56:12;93837.00;;;29.56;29.02
71194;BME280;58903;47.210;8.618;2023-06-14T09:58:40;93844.78;;;29.58;28.63
71194;BME280;58903;47.210;8.618;2023-06-14T10:01:08;93824.97;;;29.54;28.28
71194;BME280;58903;47.210;8.618;2023-06-14T10:03:38;93832.75;;;29.55;27.59
71194;BME280;58903;47.210;8.618;2023-06-14T10:06:15;93831.81;;;29.60;28.48
71194;BME280;58903;47.210;8.618;2023-06-14T10:08:58;93829.03;;;29.60;29.28
71194;BME280;58903;47.210;8.618;2023-06-14T10:11:27;93831.28;;;29.62;28.58
71194;BME280;58903;47.210;8.618;2023-06-14T10:13:55;93833.31;;;29.61;28.77
71194;BME280;58903;47.210;8.618;2023-06-14T10:16:34;93831.28;;;29.62;27.80
71194;BME280;58903;47.210;8.618;2023-06-14T10:24:33;93823.69;;;29.62;28.42
71194;BME280;58903;47.210;8.618;2023-06-14T10:27:01;93823.16;;;29.64;27.89
71194;BME280;58903;47.210;8.618;2023-06-14T10:29:31;93822.59;;;29.65;26.70
71194;BME280;58903;47.210;8.618;2023-06-14T10:31:59;93819.28;;;29.67;26.79
71194;BME280;58903;47.210;8.618;2023-06-14T10:34:27;93814.84;;;29.64;26.01
71194;BME280;58903;47.210;8.618;2023-06-14T10:39:41;93815.22;;;29.68;26.28
71194;BME280;58903;47.210;8.618;2023-06-14T10:42:09;93811.13;;;29.69;25.64
71194;BME280;58903;47.210;8.618;2023-06-14T10:47:25;93812.63;;;29.70;25.17
71194;BME280;58903;47.210;8.618;2023-06-14T10:50:12;93811.13;;;29.69;25.40
71194;BME280;58903;47.210;8.618;2023-06-14T10:52:43;93811.13;;;29.69;25.57
71194;BME280;58903;47.210;8.618;2023-06-14T10:55:18;93819.44;;;29.69;24.62
71194;BME280;58903;47.210;8.618;2023-06-14T10:57:52;93807.66;;;29.68;24.86
71194;BME280;58903;47.210;8.618;2023-06-14T11:00:33;93812.25;;;29.73;25.16
71194;BME280;58903;47.210;8.618;2023-06-14T11:05:58;93808.41;;;29.76;25.09
71194;BME280;58903;47.210;8.618;2023-06-14T11:11:31;93808.59;;;29.78;24.09
71194;BME280;58903;47.210;8.618;2023-06-14T11:14:16;93802.69;;;29.82;25.11
71194;BME280;58903;47.210;8.618;2023-06-14T11:16:54;93807.50;;;29.82;24.64
71194;BME280;58903;47.210;8.618;2023-06-14T11:20:12;93801.22;;;29.81;24.39
71194;BME280;58903;47.210;8.618;2023-06-14T11:22:50;93796.41;;;29.82;23.99
71194;BME280;58903;47.210;8.618;2023-06-14T11:25:19;93805.66;;;29.84;23.65
71194;BME280;58903;47.210;8.618;2023-06-14T11:27:50;93801.59;;;29.85;24.62
71194;BME280;58903;47.210;8.618;2023-06-14T11:30:17;93803.09;;;29.86;22.40
71194;BME280;58903;47.210;8.618;2023-06-14T11:33:01;93810.09;;;29.87;23.55
71194;BME280;58903;47.210;8.618;2023-06-14T11:35:29;93800.50;;;29.88;22.84
71194;BME280;58903;47.210;8.618;2023-06-14T11:38:13;93806.41;;;29.92;22.16
71194;BME280;58903;47.210;8.618;2023-06-14T11:40:49;93791.81;;;29.92;22.08
71194;BME280;58903;47.210;8.618;2023-06-14T11:43:25;93797.91;;;29.90;22.31
71194;BME280;58903;47.210;8.618;2023-06-14T11:45:52;93789.78;;;29.92;22.53
71194;BME280;58903;47.210;8.618;2023-06-14T11:48:18;93787.19;;;29.94;21.13
71194;BME280;58903;47.210;8.618;2023-06-14T11:50:49;93788.66;;;29.95;21.01
71194;BME280;58903;47.210;8.618;2023-06-14T11:53:16;93782.75;;;29.99;21.21
71194;BME280;58903;47.210;8.618;2023-06-14T11:55:42;93792.19;;;30.03;21.18
71194;BME280;58903;47.210;8.618;2023-06-14T11:58:10;93790.88;;;30.04;20.97
71194;BME280;58903;47.210;8.618;2023-06-14T12:00:39;93786.06;;;30.05;20.95
71194;BME280;58903;47.210;8.618;2023-06-14T12:03:06;93781.44;;;30.07;21.11
71194;BME280;58903;47.210;8.618;2023-06-14T12:05:40;93783.66;;;30.09;20.64
71194;BME280;58903;47.210;8.618;2023-06-14T12:08:12;93784.59;;;30.11;20.42
71194;BME280;58903;47.210;8.618;2023-06-14T12:10:45;93783.31;;;30.12;21.38
71194;BME280;58903;47.210;8.618;2023-06-14T12:13:22;93779.03;;;30.11;21.10
71194;BME280;58903;47.210;8.618;2023-06-14T12:15:59;93782.00;;;30.13;20.30
71194;BME280;58903;47.210;8.618;2023-06-14T12:18:38;93784.22;;;30.15;20.90
71194;BME280;58903;47.210;8.618;2023-06-14T12:21:07;93782.19;;;30.15;20.02
71194;BME280;58903;47.210;8.618;2023-06-14T12:23:53;93781.63;;;30.17;20.55
71194;BME280;58903;47.210;8.618;2023-06-14T12:26:20;93779.78;;;30.19;21.32
71194;BME280;58903;47.210;8.618;2023-06-14T12:28:48;93782.00;;;30.21;21.22
71194;BME280;58903;47.210;8.618;2023-06-14T12:31:25;93776.47;;;30.21;20.82
71194;BME280;58903;47.210;8.618;2023-06-14T12:33:52;93784.22;;;30.22;20.77
71194;BME280;58903;47.210;8.618;2023-06-14T12:36:39;93787.91;;;30.25;21.12
71194;BME280;58903;47.210;8.618;2023-06-14T12:39:12;93786.78;;;30.28;20.66
71194;BME280;58903;47.210;8.618;2023-06-14T12:41:46;93791.25;;;30.31;20.37
71194;BME280;58903;47.210;8.618;2023-06-14T12:44:12;93782.56;;;30.34;20.61
71194;BME280;58903;47.210;8.618;2023-06-14T12:46:49;93788.28;;;30.36;19.78
71194;BME280;58903;47.210;8.618;2023-06-14T12:49:19;93789.78;;;30.37;19.65
71194;BME280;58903;47.210;8.618;2023-06-14T12:51:55;93784.22;;;30.37;20.06
71194;BME280;58903;47.210;8.618;2023-06-14T12:54:23;93789.03;;;30.37;20.28
71194;BME280;58903;47.210;8.618;2023-06-14T12:56:52;93791.44;;;30.33;19.87
71194;BME280;58903;47.210;8.618;2023-06-14T12:59:20;93789.97;;;30.39;18.96
71194;BME280;58903;47.210;8.618;2023-06-14T13:01:46;93791.63;;;30.42;20.30
71194;BME280;58903;47.210;8.618;2023-06-14T13:04:16;93793.28;;;30.45;20.12
71194;BME280;58903;47.210;8.618;2023-06-14T13:06:46;93785.13;;;30.47;20.11
71194;BME280;58903;47.210;8.618;2023-06-14T13:09:15;93794.94;;;30.48;20.33
71194;BME280;58903;47.210;8.618;2023-06-14T13:11:49;93792.53;;;30.52;20.94
71194;BME280;58903;47.210;8.618;2023-06-14T13:14:21;93786.97;;;30.52;20.95
71194;BME280;58903;47.210;8.618;2023-06-14T13:17:03;93782.53;;;30.49;20.71
71194;BME280;58903;47.210;8.618;2023-06-14T13:19:37;93790.50;;;30.53;21.27
71194;BME280;58903;47.210;8.618;2023-06-14T13:22:12;93784.94;;;30.53;21.68
71194;BME280;58903;47.210;8.618;2023-06-14T13:24:39;93786.41;;;30.54;21.56
71194;BME280;58903;47.210;8.618;2023-06-14T13:27:05;93791.41;;;30.56;22.30
71194;BME280;58903;47.210;8.618;2023-06-14T13:29:33;93779.56;;;30.55;22.00
71194;BME280;58903;47.210;8.618;2023-06-14T13:32:06;93787.91;;;30.55;21.74
71194;BME280;58903;47.210;8.618;2023-06-14T13:34:51;93792.69;;;30.54;22.24
71194;BME280;58903;47.210;8.618;2023-06-14T13:37:18;93788.63;;;30.56;21.88
71194;BME280;58903;47.210;8.618;2023-06-14T13:39:50;93786.03;;;30.58;22.62
71194;BME280;58903;47.210;8.618;2023-06-14T13:42:32;93793.63;;;30.57;21.67
71194;BME280;58903;47.210;8.618;2023-06-14T13:44:59;93783.44;;;30.60;22.04
71194;BME280;58903;47.210;8.618;2023-06-14T13:47:26;93783.44;;;30.60;21.88
71194;BME280;58903;47.210;8.618;2023-06-14T13:49:52;93782.50;;;30.65;22.14
71194;BME280;58903;47.210;8.618;2023-06-14T13:52:20;93773.81;;;30.61;22.78
71194;BME280;58903;47.210;8.618;2023-06-14T13:54:51;93775.31;;;30.62;22.66
71194;BME280;58903;47.210;8.618;2023-06-14T13:57:25;93780.28;;;30.63;22.30
71194;BME280;58903;47.210;8.618;2023-06-14T13:59:52;93772.53;;;30.62;22.35
71194;BME280;58903;47.210;8.618;2023-06-14T14:02:31;93774.16;;;30.65;22.17
71194;BME280;58903;47.210;8.618;2023-06-14T14:05:04;93775.66;;;30.66;23.39
71194;BME280;58903;47.210;8.618;2023-06-14T14:07:31;93785.66;;;30.69;22.25
71194;BME280;58903;47.210;8.618;2023-06-14T14:10:02;93772.66;;;30.71;22.77
71194;BME280;58903;47.210;8.618;2023-06-14T14:12:35;93782.31;;;30.70;22.20